createdAt,value
2019-04-05T00:01:26.291Z,96344.81
2019-04-05T00:04:03.534Z,96350.70
2019-04-05T00:06:37.289Z,96348.97
2019-04-05T00:09:11.719Z,96357.71
2019-04-05T00:11:45.253Z,96356.83
2019-04-05T00:14:19.339Z,96362.48
2019-04-05T00:16:53.746Z,96362.48
2019-04-05T00:19:28.122Z,96363.87
2019-04-05T00:22:02.799Z,96367.16
2019-04-05T00:24:35.877Z,96367.16
2019-04-05T00:27:10.295Z,96376.88
2019-04-05T00:29:44.838Z,96376.99
2019-04-05T00:32:19.144Z,96380.77
2019-04-05T00:34:53.714Z,96373.11
2019-04-05T00:37:28.362Z,96370.53
2019-04-05T00:40:02.767Z,96383.00
2019-04-05T00:42:37.289Z,96383.00
2019-04-05T00:45:11.913Z,96380.85
2019-04-05T00:47:45.149Z,96392.78
2019-04-05T00:50:19.784Z,96396.61
2019-04-05T00:52:54.123Z,96403.55
2019-04-05T00:55:28.888Z,96411.29
2019-04-05T00:58:03.303Z,96411.29
2019-04-05T01:00:38.300Z,96415.44
2019-04-05T01:03:13.311Z,96415.39
2019-04-05T01:05:48.277Z,96416.74
2019-04-05T01:08:23.295Z,96420.83
2019-04-05T01:10:57.712Z,96429.86
2019-04-05T01:13:32.374Z,96436.13
2019-04-05T01:16:07.098Z,96437.59
2019-04-05T01:18:41.520Z,96429.27
2019-04-05T01:21:20.786Z,96429.27
2019-04-05T01:23:57.368Z,96427.75
2019-04-05T01:26:32.707Z,96433.42
2019-04-05T01:29:07.291Z,96439.12
2019-04-05T01:31:41.922Z,96441.00
2019-04-05T01:34:14.874Z,96441.00
2019-04-05T01:36:48.967Z,96451.30
2019-04-05T01:39:23.278Z,96456.53
2019-04-05T01:41:57.884Z,96457.66
2019-04-05T01:44:31.275Z,96465.81
2019-04-05T01:47:05.340Z,96462.80
2019-04-05T01:49:41.302Z,96447.98
2019-04-05T01:52:15.731Z,96458.84
2019-04-05T01:54:50.141Z,96458.46
2019-04-05T01:58:53.652Z,96462.61
2019-04-05T02:01:28.114Z,96453.16
2019-04-05T02:04:03.143Z,96453.16
2019-04-05T02:06:37.719Z,96450.55
2019-04-05T02:09:13.645Z,96450.14
2019-04-05T02:11:47.961Z,96448.91
2019-04-05T02:14:22.339Z,96456.36
2019-04-05T02:16:56.739Z,96453.37
2019-04-05T02:19:31.315Z,96462.03
2019-04-05T02:22:05.961Z,96461.60
2019-04-05T02:24:38.879Z,96455.08
2019-04-05T02:27:13.121Z,96455.08
2019-04-05T02:29:47.665Z,96461.67
2019-04-05T02:32:22.135Z,96462.20
2019-04-05T02:34:56.803Z,96455.12
2019-04-05T02:37:29.872Z,96451.55
2019-04-05T02:40:02.885Z,96450.03
2019-04-05T02:42:35.687Z,96453.41
2019-04-05T02:45:12.085Z,96451.98
2019-04-05T02:47:52.085Z,96453.37
2019-04-05T02:50:30.753Z,96454.34
2019-04-05T02:53:05.286Z,96452.20
2019-04-05T02:55:42.740Z,96446.77
2019-04-05T02:58:17.708Z,96446.77
2019-04-05T03:00:51.109Z,96455.69
2019-04-05T03:03:25.709Z,96458.91
2019-04-05T03:05:58.755Z,96467.23
2019-04-05T03:08:33.251Z,96470.09
2019-04-05T03:11:17.731Z,96472.48
2019-04-05T03:13:55.055Z,96483.73
2019-04-05T03:16:40.870Z,96484.24
2019-04-05T03:19:24.689Z,96489.19
2019-04-05T03:22:04.864Z,96486.42
2019-04-05T03:24:42.300Z,96495.37
2019-04-05T03:27:27.662Z,96506.59
2019-04-05T03:30:02.495Z,96502.73
2019-04-05T03:32:37.284Z,96516.07
2019-04-05T03:35:12.278Z,96515.11
2019-04-05T03:37:47.668Z,96514.38
2019-04-05T03:40:22.339Z,96515.09
2019-04-05T03:42:57.583Z,96513.27
2019-04-05T03:45:32.309Z,96516.39
2019-04-05T03:48:08.675Z,96516.97
2019-04-05T03:50:45.164Z,96516.97
2019-04-05T03:53:18.493Z,96522.61
2019-04-05T03:55:54.328Z,96514.92
2019-04-05T03:58:28.885Z,96527.53
2019-04-05T04:01:03.696Z,96528.19
2019-04-05T04:08:30.263Z,96533.52
2019-04-05T04:11:04.731Z,96533.52
2019-04-05T04:13:39.071Z,96534.78
2019-04-05T04:16:13.863Z,96533.84
2019-04-05T04:18:48.688Z,96536.22
2019-04-05T04:21:59.282Z,96546.20
2019-04-05T04:24:34.843Z,96546.20
2019-04-05T04:27:09.904Z,96544.94
2019-04-05T04:29:43.095Z,96546.30
2019-04-05T04:32:16.422Z,96547.19
2019-04-05T04:34:50.878Z,96552.08
2019-04-05T04:37:23.860Z,96552.08
2019-04-05T04:39:58.269Z,96552.48
2019-04-05T04:42:32.653Z,96551.47
2019-04-05T04:45:12.471Z,96554.38
2019-04-05T04:47:46.527Z,96557.40
2019-04-05T04:50:21.412Z,96557.40
2019-04-05T04:52:56.304Z,96557.88
2019-04-05T04:55:30.878Z,96557.88
2019-04-05T04:58:03.649Z,96574.92
2019-04-05T05:00:38.327Z,96574.92
2019-04-05T05:03:13.140Z,96566.73
2019-04-05T05:05:47.700Z,96575.43
2019-04-05T05:08:22.116Z,96579.09
2019-04-05T05:10:56.752Z,96577.04
2019-04-05T05:13:31.304Z,96577.04
2019-04-05T05:16:06.267Z,96582.67
2019-04-05T05:18:40.860Z,96582.67
2019-04-05T05:21:14.094Z,96580.41
2019-04-05T05:23:48.460Z,96582.14
2019-04-05T05:26:23.253Z,96576.37
2019-04-05T05:28:57.702Z,96584.79
2019-04-05T05:31:30.675Z,96588.85
2019-04-05T05:34:04.944Z,96585.55
2019-04-05T05:36:39.273Z,96584.16
2019-04-05T05:39:13.710Z,96598.66
2019-04-05T05:41:48.097Z,96594.63
2019-04-05T05:44:22.715Z,96613.14
2019-04-05T05:46:57.086Z,96613.14
2019-04-05T05:49:32.941Z,96612.53
2019-04-05T05:52:07.682Z,96612.53
2019-04-05T05:54:42.128Z,96606.88
2019-04-05T05:57:16.660Z,96607.38
2019-04-05T05:59:50.944Z,96609.87
2019-04-05T06:02:25.276Z,96604.92
2019-04-05T06:04:59.720Z,96609.72
2019-04-05T06:07:34.080Z,96610.45
2019-04-05T06:10:09.619Z,96617.52
2019-04-05T06:12:44.043Z,96614.98
2019-04-05T06:15:18.290Z,96618.78
2019-04-05T06:18:04.205Z,96626.98
2019-04-05T06:20:30.279Z,96626.98
2019-04-05T06:23:04.675Z,96636.92
2019-04-05T06:25:39.292Z,96639.20
2019-04-05T06:28:13.735Z,96643.11
2019-04-05T06:30:48.265Z,96645.75
2019-04-05T06:33:31.282Z,96651.27
2019-04-05T06:36:00.133Z,96653.77
2019-04-05T06:38:34.664Z,96650.02
2019-04-05T06:41:09.272Z,96648.34
2019-04-05T06:43:44.634Z,96648.34
2019-04-05T06:46:18.934Z,96654.66
2019-04-05T06:48:51.856Z,96650.07
2019-04-05T06:51:25.941Z,96646.82
2019-04-05T06:54:03.166Z,96647.74
2019-04-05T06:56:38.267Z,96648.84
2019-04-05T06:59:12.911Z,96651.59
2019-04-05T07:01:47.677Z,96642.66
2019-04-05T07:04:22.284Z,96642.66
2019-04-05T07:06:56.697Z,96650.73
2019-04-05T07:09:33.920Z,96653.57
2019-04-05T07:12:07.093Z,96657.86
2019-04-05T07:14:41.617Z,96659.62
2019-04-05T07:17:15.935Z,96659.62
2019-04-05T07:19:48.844Z,96665.66
2019-04-05T07:22:36.976Z,96665.91
2019-04-05T07:24:59.595Z,96668.15
2019-04-05T07:27:33.930Z,96668.15
2019-04-05T07:30:08.652Z,96670.37
2019-04-05T07:32:43.082Z,96668.95
2019-04-05T07:35:17.318Z,96667.17
2019-04-05T07:39:36.635Z,96684.28
2019-04-05T07:42:10.934Z,96684.28
2019-04-05T07:44:43.797Z,96685.03
2019-04-05T07:47:17.931Z,96687.52
2019-04-05T07:49:52.266Z,96687.52
2019-04-05T07:52:26.693Z,96685.08
2019-04-05T07:55:01.019Z,96688.81
2019-04-05T08:01:20.661Z,96687.41
2019-04-05T08:03:57.928Z,96687.41
2019-04-05T08:06:33.335Z,96684.79
2019-04-05T08:09:15.275Z,96692.64
2019-04-05T08:11:50.785Z,96693.20
2019-04-05T08:14:24.393Z,96689.15
2019-04-05T08:16:58.710Z,96694.20
2019-04-05T08:19:32.934Z,96697.05
2019-04-05T08:22:07.400Z,96697.05
2019-04-05T08:24:41.939Z,96704.63
2019-04-05T08:27:16.442Z,96700.22
2019-04-05T08:29:50.874Z,96713.44
2019-04-05T08:32:25.101Z,96704.83
2019-04-05T08:34:59.293Z,96699.05
2019-04-05T08:37:33.882Z,96699.05
2019-04-05T08:40:08.299Z,96710.74
2019-04-05T08:42:42.661Z,96707.13
2019-04-05T08:45:17.335Z,96706.63
2019-04-05T08:47:51.711Z,96706.22
2019-04-05T08:50:26.050Z,96706.95
2019-04-05T08:53:01.247Z,96688.49
2019-04-05T08:55:35.891Z,96688.49
2019-04-05T08:58:10.115Z,96684.87
2019-04-05T09:00:44.568Z,96690.30
2019-04-05T09:03:18.941Z,96690.30
2019-04-05T09:05:53.268Z,96687.11
2019-04-05T09:08:28.132Z,96689.69
2019-04-05T09:11:02.751Z,96686.34
2019-04-05T09:13:37.275Z,96685.80
2019-04-05T09:16:11.959Z,96682.13
2019-04-05T09:19:23.351Z,96678.47
2019-04-05T09:21:53.850Z,96684.18
2019-04-05T09:24:26.779Z,96679.23
2019-04-05T09:27:01.300Z,96679.23
2019-04-05T09:29:35.793Z,96684.52
2019-04-05T09:32:08.627Z,96680.11
2019-04-05T09:34:42.896Z,96687.20
2019-04-05T09:37:17.118Z,96685.05
2019-04-05T09:39:51.624Z,96687.53
2019-04-05T09:42:25.901Z,96687.53
2019-04-05T09:45:00.275Z,96688.38
2019-04-05T09:47:34.744Z,96686.55
2019-04-05T09:50:09.268Z,96689.05
2019-04-05T09:52:43.890Z,96690.63
2019-04-05T09:55:18.275Z,96682.14
2019-04-05T09:57:52.710Z,96691.53
2019-04-05T10:00:28.442Z,96691.53
2019-04-05T10:03:02.884Z,96680.06
2019-04-05T10:05:37.069Z,96680.06
2019-04-05T10:08:11.763Z,96673.38
2019-04-05T10:10:44.685Z,96673.38
2019-04-05T10:13:19.102Z,96670.14
2019-04-05T10:17:06.680Z,96671.14
2019-04-05T10:19:49.858Z,96672.95
2019-04-05T10:22:15.634Z,96674.38
2019-04-05T10:24:49.948Z,96679.19
2019-04-05T10:27:24.121Z,96685.91
2019-04-05T10:29:58.331Z,96676.64
2019-04-05T10:32:32.679Z,96676.64
2019-04-05T10:35:07.542Z,96674.34
2019-04-05T10:37:41.945Z,96679.42
2019-04-05T10:40:16.689Z,96686.94
2019-04-05T10:42:50.945Z,96686.94
2019-04-05T10:45:25.280Z,96688.61
2019-04-05T10:47:59.856Z,96688.61
2019-04-05T10:50:34.224Z,96692.66
2019-04-05T10:53:08.762Z,96689.59
2019-04-05T10:55:41.704Z,96688.03
2019-04-05T10:58:15.919Z,96681.77
2019-04-05T11:00:51.644Z,96688.97
2019-04-05T11:03:25.952Z,96691.58
2019-04-05T11:06:00.141Z,96694.95
2019-04-05T11:08:34.670Z,96696.72
2019-04-05T11:11:07.620Z,96681.35
2019-04-05T11:13:41.892Z,96685.01
2019-04-05T11:16:17.277Z,96695.34
2019-04-05T11:18:51.682Z,96694.08
2019-04-05T11:21:26.107Z,96700.16
2019-04-05T11:24:00.624Z,96698.03
2019-04-05T11:26:35.272Z,96686.84
2019-04-05T11:29:09.679Z,96686.84
2019-04-05T11:31:56.412Z,96683.84
2019-04-05T11:34:20.884Z,96683.77
2019-04-05T11:36:55.327Z,96683.77
2019-04-05T11:39:30.374Z,96693.21
2019-04-05T11:42:06.317Z,96693.21
2019-04-05T11:44:43.298Z,96690.00
2019-04-05T11:47:19.388Z,96682.98
2019-04-05T11:49:55.236Z,96687.79
2019-04-05T11:52:30.281Z,96690.75
2019-04-05T11:55:04.783Z,96685.53
2019-04-05T11:57:41.073Z,96686.56
2019-04-05T12:00:21.675Z,96689.39
2019-04-05T12:03:01.971Z,96697.61
2019-04-05T12:05:34.693Z,96697.73
2019-04-05T12:08:09.290Z,96697.16
2019-04-05T12:10:43.729Z,96698.11
2019-04-05T12:13:18.796Z,96696.94
2019-04-05T12:15:51.697Z,96687.08
2019-04-05T12:18:25.919Z,96684.91
2019-04-05T12:21:00.855Z,96690.78
2019-04-05T12:23:36.344Z,96676.06
2019-04-05T12:26:10.729Z,96676.06
2019-04-05T12:28:43.844Z,96687.06
2019-04-05T12:31:16.987Z,96680.14
2019-04-05T12:33:52.537Z,96682.66
2019-04-05T12:36:26.944Z,96672.64
2019-04-05T12:39:01.607Z,96673.63
2019-04-05T12:41:40.402Z,96665.97
2019-04-05T12:44:15.148Z,96667.53
2019-04-05T12:46:49.315Z,96667.63
2019-04-05T12:49:23.757Z,96667.63
2019-04-05T12:51:56.693Z,96671.52
2019-04-05T12:54:30.942Z,96664.66
2019-04-05T12:57:05.117Z,96665.23
2019-04-05T12:59:39.674Z,96664.52
2019-04-05T13:02:19.060Z,96664.52
2019-04-05T13:04:50.873Z,96664.88
2019-04-05T13:07:25.268Z,96660.44
2019-04-05T13:09:59.720Z,96663.25
2019-04-05T13:12:33.942Z,96662.02
2019-04-05T13:15:12.940Z,96666.49
2019-04-05T13:17:44.729Z,96658.59
2019-04-05T13:20:19.300Z,96661.66
2019-04-05T13:22:53.697Z,96657.95
2019-04-05T13:25:28.089Z,96658.86
2019-04-05T13:28:12.719Z,96657.58
2019-04-05T13:30:38.898Z,96662.14
2019-04-05T13:33:13.274Z,96659.51
2019-04-05T13:35:47.746Z,96659.23
2019-04-05T13:38:21.941Z,96655.63
2019-04-05T13:40:57.118Z,96655.63
2019-04-05T13:43:32.622Z,96664.14
2019-04-05T13:46:07.257Z,96664.02
2019-04-05T13:48:41.765Z,96661.25
2019-04-05T13:51:26.924Z,96654.30
2019-04-05T13:53:50.736Z,96652.03
2019-04-05T13:56:25.118Z,96655.34
2019-04-05T13:58:59.296Z,96645.45
2019-04-05T14:01:33.696Z,96645.45
2019-04-05T14:06:33.647Z,96657.36
2019-04-05T14:09:10.485Z,96657.36
2019-04-05T14:11:45.315Z,96659.12
2019-04-05T14:14:19.703Z,96660.20
2019-04-05T14:16:54.196Z,96662.12
2019-04-05T14:21:26.694Z,96657.99
2019-04-05T14:23:59.682Z,96658.41
2019-04-05T14:26:34.322Z,96666.17
2019-04-05T14:29:08.970Z,96670.43
2019-04-05T14:31:43.315Z,96668.83
2019-04-05T14:34:18.550Z,96666.97
2019-04-05T14:36:53.255Z,96665.98
2019-04-05T14:39:27.739Z,96662.02
2019-04-05T14:42:09.501Z,96656.34
2019-04-05T14:44:36.946Z,96659.26
2019-04-05T14:47:11.336Z,96663.44
2019-04-05T14:49:46.077Z,96655.55
2019-04-05T14:52:20.701Z,96656.39
2019-04-05T14:54:55.281Z,96656.39
2019-04-05T14:57:29.888Z,96654.28
2019-04-05T15:00:04.522Z,96654.28
2019-04-05T15:02:39.277Z,96650.84
2019-04-05T15:05:13.943Z,96646.43
2019-04-05T15:07:50.794Z,96645.99
2019-04-05T15:10:26.193Z,96640.30
2019-04-05T15:13:01.225Z,96642.33
2019-04-05T15:15:36.259Z,96642.33
2019-04-05T15:18:11.962Z,96640.25
2019-04-05T15:20:46.870Z,96640.25
2019-04-05T15:23:21.270Z,96639.54
2019-04-05T15:25:55.887Z,96634.33
2019-04-05T15:28:29.580Z,96642.27
2019-04-05T15:31:04.277Z,96641.18
2019-04-05T15:33:39.606Z,96641.18
2019-04-05T15:36:17.056Z,96636.92
2019-04-05T15:38:52.712Z,96636.30
2019-04-05T15:41:26.039Z,96631.22
2019-04-05T15:43:58.857Z,96636.00
2019-04-05T15:46:31.782Z,96636.00
2019-04-05T15:49:06.074Z,96646.74
2019-04-05T15:51:41.755Z,96638.80
2019-04-05T15:54:14.640Z,96640.30
2019-04-05T15:56:49.102Z,96647.62
2019-04-05T15:59:23.698Z,96640.84
2019-04-05T16:01:58.268Z,96641.00
2019-04-05T16:04:32.693Z,96641.00
2019-04-05T16:07:07.408Z,96644.23
2019-04-05T16:09:41.937Z,96650.20
2019-04-05T16:12:16.272Z,96651.50
2019-04-05T16:14:51.890Z,96648.77
2019-04-05T16:17:26.273Z,96651.55
2019-04-05T16:20:00.880Z,96652.27
2019-04-05T16:22:35.823Z,96652.53
2019-04-05T16:25:10.577Z,96655.63
2019-04-05T16:27:45.260Z,96653.87
2019-04-05T16:30:19.712Z,96665.41
2019-04-05T16:32:52.771Z,96655.27
2019-04-05T16:35:26.938Z,96652.09
2019-04-05T16:38:01.628Z,96655.12
2019-04-05T16:40:36.096Z,96655.12
2019-04-05T16:43:10.642Z,96661.11
2019-04-05T16:45:44.950Z,96661.11
2019-04-05T16:48:19.295Z,96666.39
2019-04-05T16:50:53.929Z,96661.87
2019-04-05T16:53:28.327Z,96665.72
2019-04-05T16:56:02.947Z,96659.79
2019-04-05T16:58:37.286Z,96665.24
2019-04-05T17:01:11.940Z,96662.87
2019-04-05T17:03:44.860Z,96658.62
2019-04-05T17:06:19.144Z,96664.37
2019-04-05T17:08:53.800Z,96665.28
2019-04-05T17:11:27.940Z,96661.00
2019-04-05T17:14:00.994Z,96659.14
2019-04-05T17:16:35.337Z,96661.53
2019-04-05T17:19:09.878Z,96661.53
2019-04-05T17:21:44.277Z,96658.33
2019-04-05T17:24:18.761Z,96658.77
2019-04-05T17:26:51.755Z,96667.81
2019-04-05T17:29:26.273Z,96669.22
2019-04-05T17:32:00.746Z,96667.75
2019-04-05T17:34:34.944Z,96667.75
2019-04-05T17:37:09.273Z,96670.32
2019-04-05T17:39:43.677Z,96665.38
2019-04-05T17:42:16.710Z,96670.44
2019-04-05T17:44:50.948Z,96673.98
2019-04-05T17:47:25.296Z,96680.02
2019-04-05T17:49:59.921Z,96680.34
2019-04-05T17:52:34.615Z,96684.53
2019-04-05T17:55:10.072Z,96684.53
2019-04-05T17:57:44.865Z,96695.89
2019-04-05T18:00:22.431Z,96695.89
2019-04-05T18:02:56.919Z,96697.05
2019-04-05T18:05:31.278Z,96691.34
2019-04-05T18:08:05.722Z,96697.02
2019-04-05T18:10:38.786Z,96694.56
2019-04-05T18:13:12.942Z,96693.56
2019-04-05T18:15:52.720Z,96696.66
2019-04-05T18:18:23.654Z,96705.00
2019-04-05T18:20:58.119Z,96705.00
2019-04-05T18:23:32.754Z,96707.77
2019-04-05T18:26:07.271Z,96707.77
2019-04-05T18:28:41.793Z,96706.23
2019-04-05T18:31:14.864Z,96707.63
2019-04-05T18:33:48.900Z,96710.97
2019-04-05T18:36:25.281Z,96700.73
2019-04-05T18:39:00.077Z,96701.26
2019-04-05T18:41:33.685Z,96705.18
2019-04-05T18:44:08.269Z,96712.59
2019-04-05T18:46:42.889Z,96713.11
2019-04-05T18:49:17.650Z,96715.22
2019-04-05T18:51:52.281Z,96721.77
2019-04-05T18:54:26.693Z,96709.20
2019-04-05T18:57:01.310Z,96716.34
2019-04-05T18:59:35.855Z,96714.63
2019-04-05T19:02:09.861Z,96713.11
2019-04-05T19:04:43.944Z,96713.11
2019-04-05T19:07:18.335Z,96721.00
2019-04-05T19:09:53.508Z,96719.56
2019-04-05T19:12:27.977Z,96725.14
2019-04-05T19:15:02.466Z,96729.33
2019-04-05T19:17:36.917Z,96729.33
2019-04-05T19:20:11.941Z,96722.12
2019-04-05T19:22:47.660Z,96722.76
2019-04-05T19:25:22.114Z,96726.73
2019-04-05T19:27:57.138Z,96719.84
2019-04-05T19:48:44.277Z,96738.66
2019-04-05T19:51:18.954Z,96731.69
2019-04-05T19:54:00.830Z,96735.64
2019-04-05T19:56:28.295Z,96735.64
2019-04-05T19:59:02.751Z,96735.95
2019-04-05T20:01:35.785Z,96741.05
2019-04-05T20:04:10.198Z,96732.75
2019-04-05T20:06:44.786Z,96738.91
2019-04-05T20:09:18.122Z,96736.81
2019-04-05T20:11:52.651Z,96731.94
2019-04-05T20:14:27.055Z,96731.94
2019-04-05T20:17:01.672Z,96737.48
2019-04-05T20:19:36.301Z,96737.17
2019-04-05T20:22:11.535Z,96737.17
2019-04-05T20:24:46.786Z,96735.38
2019-04-05T20:27:21.442Z,96728.47
2019-04-05T20:29:56.280Z,96731.82
2019-04-05T20:32:30.747Z,96739.43
2019-04-05T20:35:03.707Z,96734.84
2019-04-05T20:37:40.059Z,96725.30
2019-04-05T20:40:14.704Z,96739.80
2019-04-05T20:42:48.032Z,96739.80
2019-04-05T20:45:21.122Z,96738.27
2019-04-05T20:47:55.486Z,96738.50
2019-04-05T20:50:30.289Z,96746.28
2019-04-05T20:53:04.786Z,96741.14
2019-04-05T20:55:39.280Z,96741.14
2019-04-05T20:58:14.150Z,96740.67
2019-04-05T21:00:48.743Z,96739.82
2019-04-05T21:03:22.006Z,96740.99
2019-04-05T21:05:56.644Z,96738.66
2019-04-05T21:08:31.985Z,96738.66
2019-04-05T21:11:06.749Z,96749.95
2019-04-05T21:13:40.690Z,96750.08
2019-04-05T21:16:15.299Z,96750.08
2019-04-05T21:18:50.293Z,96754.14
2019-04-05T21:21:25.291Z,96758.19
2019-04-05T21:24:01.281Z,96759.20
2019-04-05T21:26:35.968Z,96756.72
2019-04-05T21:29:10.971Z,96759.02
2019-04-05T21:31:45.901Z,96760.64
2019-04-05T21:34:20.450Z,96757.62
2019-04-05T21:36:55.943Z,96762.97
2019-04-05T21:39:30.683Z,96761.84
2019-04-05T21:42:04.126Z,96761.84
2019-04-05T21:44:38.674Z,96765.26
2019-04-05T21:47:12.064Z,96769.82
2019-04-05T21:49:46.782Z,96772.48
2019-04-05T21:52:21.436Z,96772.48
2019-04-05T21:54:56.314Z,96774.00
2019-04-05T21:57:31.291Z,96774.87
2019-04-05T22:00:08.269Z,96770.72
2019-04-05T22:02:43.266Z,96769.33
2019-04-05T22:05:18.316Z,96768.20
2019-04-05T22:07:53.300Z,96776.02
2019-04-05T22:10:28.292Z,96785.22
2019-04-05T22:13:04.536Z,96778.41
2019-04-05T22:15:38.078Z,96779.67
2019-04-05T22:20:39.754Z,96778.78
2019-04-05T22:23:13.778Z,96787.64
2019-04-05T22:25:48.503Z,96779.95
2019-04-05T22:28:23.304Z,96787.24
2019-04-05T22:30:57.991Z,96787.24
2019-04-05T22:33:33.081Z,96796.31
2019-04-05T22:36:07.836Z,96796.31
2019-04-05T22:38:41.304Z,96790.38
2019-04-05T22:41:15.714Z,96794.80
2019-04-05T22:43:49.149Z,96801.84
2019-04-05T22:46:23.731Z,96801.84
2019-04-05T22:48:58.544Z,96802.58
2019-04-05T22:51:33.569Z,96808.73
2019-04-05T22:54:08.149Z,96808.03
2019-04-05T22:57:50.740Z,96812.95
2019-04-05T23:00:26.039Z,96805.56
2019-04-05T23:03:01.136Z,96805.56
2019-04-05T23:05:36.154Z,96805.56
2019-04-05T23:08:11.818Z,96808.20
2019-04-05T23:10:46.292Z,96811.95
2019-04-05T23:13:20.789Z,96816.11
2019-04-05T23:15:53.878Z,96819.38
2019-04-05T23:18:28.300Z,96819.11
2019-04-05T23:21:02.951Z,96821.02
2019-04-05T23:23:37.741Z,96820.25
2019-04-05T23:26:12.305Z,96820.25
2019-04-05T23:28:46.951Z,96823.16
2019-04-05T23:31:21.696Z,96818.47
2019-04-05T23:33:54.894Z,96818.47
2019-04-05T23:36:28.010Z,96814.17
2019-04-05T23:39:00.870Z,96819.87
2019-04-05T23:41:36.976Z,96815.73
2019-04-05T23:44:11.967Z,96818.66
2019-04-05T23:46:46.373Z,96821.08
2019-04-05T23:49:21.175Z,96821.20
2019-04-05T23:51:55.748Z,96821.56
2019-04-05T23:54:30.307Z,96821.89
2019-04-05T23:57:05.205Z,96826.44
2019-04-05T23:59:39.781Z,96823.79
